Time;durP1;ratioP1;P1;durP2;ratioP2;P2;SDS_P1;SDS_P2;PMS_P1;PMS_P2;Temp;Humidity;BMP_temperature;BMP_pressure;BME280_temperature;BME280_humidity;BME280_pressure;Samples;Min_cycle;Max_cycle;Signal;HPM_P1;HPM_P2
2021/12/07 00:01:56;;;;;;;16.20;2.33;;;;;;;;;;5025796;28;20041;-74
2021/12/07 00:04:21;;;;;;;11.13;2.88;;;;;;;;;;5023994;28;20042;-73
2021/12/07 00:06:47;;;;;;;11.13;2.63;;;;;;;;;;5025262;28;20052;-76
2021/12/07 00:09:15;;;;;;;13.47;2.50;;;;;;;;;;5026896;28;20446;-75
2021/12/07 00:11:41;;;;;;;12.05;2.65;;;;;;;;;;5027177;28;20052;-75
2021/12/07 00:14:14;;;;;;;10.75;2.40;;;;;;;;;;5025634;28;20038;-75
2021/12/07 00:16:44;;;;;;;7.30;2.75;;;;;;;;;;5026617;28;20065;-75
2021/12/07 00:19:11;;;;;;;13.93;3.30;;;;;;;;;;5031375;28;20033;-75
2021/12/07 00:21:40;;;;;;;10.15;2.35;;;;;;;;;;5035167;28;20083;-76
2021/12/07 00:24:06;;;;;;;13.88;3.08;;;;;;;;;;5024881;28;20045;-75
2021/12/07 00:26:32;;;;;;;24.10;2.95;;;;;;;;;;5036305;28;20116;-72
2021/12/07 00:28:59;;;;;;;19.27;2.17;;;;;;;;;;5027517;28;20180;-73
2021/12/07 00:31:29;;;;;;;;;;;;;;;;;;5017782;28;20046;-74
2021/12/07 00:34:55;;;;;;;14.70;2.20;;;;;;;;;;5034283;28;20011;-74
2021/12/07 00:36:47;;;;;;;14.05;2.78;;;;;;;;;;5018829;28;20465;-74
2021/12/07 00:39:16;;;;;;;10.57;1.90;;;;;;;;;;5033285;28;20065;-74
2021/12/07 00:41:41;;;;;;;11.13;3.60;;;;;;;;;;5020145;28;20033;-74
2021/12/07 00:44:07;;;;;;;15.90;2.43;;;;;;;;;;5016509;28;20038;-74
2021/12/07 00:46:33;;;;;;;14.37;2.53;;;;;;;;;;5028825;28;20053;-73
2021/12/07 00:48:58;;;;;;;17.13;2.63;;;;;;;;;;5031103;28;20017;-74
2021/12/07 00:51:24;;;;;;;13.17;3.07;;;;;;;;;;5032992;28;20756;-73
2021/12/07 00:53:50;;;;;;;13.70;2.87;;;;;;;;;;5051207;28;20041;-75
2021/12/07 00:56:15;;;;;;;13.53;2.80;;;;;;;;;;5028331;28;20044;-74
2021/12/07 00:58:41;;;;;;;21.40;2.50;;;;;;;;;;5026088;28;20026;-74
2021/12/07 01:01:10;;;;;;;15.70;3.00;;;;;;;;;;5025731;28;20116;-74
2021/12/07 01:03:36;;;;;;;17.70;2.72;;;;;;;;;;5015152;28;20029;-74
2021/12/07 01:06:15;;;;;;;13.20;2.45;;;;;;;;;;5030538;28;20419;-74
2021/12/07 01:25:04;;;;;;;8.27;2.22;;;;;;;;;;5027138;28;20103;-74
2021/12/07 01:27:30;;;;;;;11.57;2.17;;;;;;;;;;5019854;28;20104;-74
2021/12/07 01:30:06;;;;;;;17.57;2.33;;;;;;;;;;5018170;28;20073;-74
2021/12/07 01:33:07;;;;;;;17.17;2.50;;;;;;;;;;5012979;28;20379;-74
2021/12/07 02:00:50;;;;;;;11.88;2.47;;;;;;;;;;5025942;28;20122;-74
2021/12/07 02:03:16;;;;;;;12.70;2.35;;;;;;;;;;5025499;28;20034;-74
2021/12/07 02:05:41;;;;;;;15.20;2.25;;;;;;;;;;5034457;28;20038;-74
2021/12/07 02:08:07;;;;;;;11.57;1.93;;;;;;;;;;5025042;28;20049;-74
2021/12/07 02:10:33;;;;;;;14.07;3.37;;;;;;;;;;5019556;28;20080;-74
2021/12/07 02:13:18;;;;;;;14.73;2.65;;;;;;;;;;5019667;28;20116;-74
2021/12/07 02:15:44;;;;;;;24.33;2.65;;;;;;;;;;5033257;28;20037;-74
2021/12/07 02:18:09;;;;;;;11.57;2.30;;;;;;;;;;5019234;28;20041;-74
2021/12/07 02:20:35;;;;;;;19.83;2.60;;;;;;;;;;5018857;28;20033;-74
2021/12/07 02:23:00;;;;;;;10.13;2.03;;;;;;;;;;5018477;28;20057;-74
2021/12/07 02:25:28;;;;;;;21.17;2.60;;;;;;;;;;5018367;28;20046;-74
2021/12/07 02:27:53;;;;;;;10.63;2.08;;;;;;;;;;5015598;28;20029;-74
2021/12/07 02:30:21;;;;;;;21.17;3.03;;;;;;;;;;5018062;28;20104;-74
2021/12/07 02:32:50;;;;;;;12.18;2.20;;;;;;;;;;5031459;28;20041;-74
2021/12/07 02:35:22;;;;;;;15.85;2.53;;;;;;;;;;5020590;28;20040;-74
2021/12/07 02:37:48;;;;;;;22.15;2.30;;;;;;;;;;5017818;28;20042;-73
2021/12/07 02:40:13;;;;;;;11.33;1.90;;;;;;;;;;5019538;28;20116;-73
2021/12/07 02:42:39;;;;;;;25.33;3.23;;;;;;;;;;5033717;28;20489;-73
2021/12/07 02:45:07;;;;;;;15.67;2.43;;;;;;;;;;5026398;28;20030;-74
2021/12/07 02:47:36;;;;;;;25.60;2.70;;;;;;;;;;5023533;28;20045;-73
2021/12/07 02:50:06;;;;;;;11.95;2.38;;;;;;;;;;5022845;28;20104;-74
2021/12/07 02:52:31;;;;;;;15.70;2.20;;;;;;;;;;5017420;28;20034;-73
2021/12/07 02:54:57;;;;;;;17.87;2.20;;;;;;;;;;5018877;28;20378;-74
2021/12/07 02:57:23;;;;;;;19.10;3.13;;;;;;;;;;5025186;28;20029;-73
2021/12/07 02:59:57;;;;;;;14.27;2.33;;;;;;;;;;5029453;28;20081;-73
2021/12/07 03:02:23;;;;;;;14.98;2.72;;;;;;;;;;5031551;28;20047;-73
2021/12/07 03:05:04;;;;;;;16.50;3.00;;;;;;;;;;5028887;28;20124;-73
2021/12/07 03:07:47;;;;;;;15.88;3.63;;;;;;;;;;5023064;28;20034;-73
2021/12/07 03:26:38;;;;;;;9.90;3.20;;;;;;;;;;5022787;28;20052;-73
2021/12/07 03:29:03;;;;;;;24.83;3.90;;;;;;;;;;5018903;28;20441;-73
2021/12/07 03:31:30;;;;;;;11.67;3.20;;;;;;;;;;5018090;28;20041;-73
2021/12/07 03:33:56;;;;;;;8.68;2.58;;;;;;;;;;5021032;28;20025;-73
2021/12/07 03:36:22;;;;;;;15.63;3.03;;;;;;;;;;5027971;28;20050;-73
2021/12/07 03:38:48;;;;;;;10.47;3.60;;;;;;;;;;5026295;28;20053;-73
2021/12/07 03:41:14;;;;;;;8.70;2.73;;;;;;;;;;5028259;28;20030;-73
2021/12/07 03:43:40;;;;;;;14.90;2.73;;;;;;;;;;5023846;28;20279;-73
2021/12/07 03:46:06;;;;;;;14.05;2.75;;;;;;;;;;5021179;28;20045;-74
2021/12/07 03:48:32;;;;;;;10.27;3.08;;;;;;;;;;5031977;28;20030;-73
2021/12/07 03:50:58;;;;;;;20.13;2.97;;;;;;;;;;5016734;28;20050;-73
2021/12/07 03:53:23;;;;;;;12.23;3.57;;;;;;;;;;5016403;28;20278;-73
2021/12/07 03:55:49;;;;;;;11.90;2.70;;;;;;;;;;5022883;28;20388;-73
2021/12/07 03:58:14;;;;;;;23.57;4.00;;;;;;;;;;5024735;28;20064;-73
2021/12/07 04:00:43;;;;;;;21.23;2.70;;;;;;;;;;5024408;28;20041;-73
2021/12/07 04:03:11;;;;;;;18.10;3.17;;;;;;;;;;5020890;28;20097;-73
2021/12/07 04:05:45;;;;;;;22.10;3.65;;;;;;;;;;5027950;28;20476;-73
2021/12/07 04:08:12;;;;;;;22.73;3.72;;;;;;;;;;5023662;28;20069;-73
2021/12/07 04:10:37;;;;;;;25.50;4.47;;;;;;;;;;5026279;28;20124;-73
2021/12/07 04:13:03;;;;;;;21.37;4.57;;;;;;;;;;5021009;28;20113;-74
2021/12/07 04:15:28;;;;;;;22.37;5.10;;;;;;;;;;5028629;28;20072;-73
2021/12/07 04:17:54;;;;;;;15.43;2.33;;;;;;;;;;5029904;28;20105;-73
2021/12/07 04:20:20;;;;;;;11.13;3.30;;;;;;;;;;5032040;28;20032;-73
2021/12/07 04:22:46;;;;;;;19.45;3.40;;;;;;;;;;5045625;28;20083;-74
2021/12/07 04:25:15;;;;;;;16.67;3.83;;;;;;;;;;5013923;28;20043;-73
2021/12/07 04:27:40;;;;;;;17.45;3.75;;;;;;;;;;5028135;28;20048;-73
2021/12/07 04:30:12;;;;;;;23.33;5.33;;;;;;;;;;5017195;28;20478;-74
2021/12/07 04:32:38;;;;;;;13.30;3.45;;;;;;;;;;5016089;28;20045;-73
2021/12/07 04:35:04;;;;;;;16.40;4.10;;;;;;;;;;5017204;28;20033;-73
2021/12/07 04:37:29;;;;;;;16.83;3.08;;;;;;;;;;5022237;28;20060;-73
2021/12/07 04:39:55;;;;;;;14.83;3.27;;;;;;;;;;5020324;28;20470;-74
2021/12/07 04:42:20;;;;;;;17.87;3.23;;;;;;;;;;5019578;28;20018;-73
2021/12/07 04:44:52;;;;;;;10.67;3.87;;;;;;;;;;5019301;28;20038;-74
2021/12/07 04:47:26;;;;;;;12.93;4.00;;;;;;;;;;5021957;28;20076;-73
2021/12/07 04:57:38;;;;;;;15.10;3.42;;;;;;;;;;5030320;28;20600;-73
2021/12/07 04:58:27;;;;;;;20.05;3.17;;;;;;;;;;5022392;28;20044;-73
2021/12/07 05:00:53;;;;;;;23.50;3.73;;;;;;;;;;5027640;28;20142;-73
2021/12/07 05:03:18;;;;;;;10.10;2.43;;;;;;;;;;5034408;28;20029;-74
2021/12/07 05:05:48;;;;;;;16.37;3.63;;;;;;;;;;5024766;28;20065;-73
2021/12/07 05:08:18;;;;;;;16.45;2.75;;;;;;;;;;5037020;28;20436;-73
2021/12/07 05:18:23;;;;;;;13.20;2.97;;;;;;;;;;5021741;28;20034;-73
2021/12/07 05:34:41;;;;;;;25.00;4.47;;;;;;;;;;5021961;28;20056;-73
2021/12/07 05:39:52;;;;;;;17.02;3.08;;;;;;;;;;5045657;28;20060;-73
2021/12/07 05:42:18;;;;;;;18.08;3.25;;;;;;;;;;5034177;28;20497;-73
2021/12/07 05:44:44;;;;;;;11.98;2.13;;;;;;;;;;5034160;28;20045;-73
2021/12/07 05:47:09;;;;;;;8.90;2.70;;;;;;;;;;5032962;28;20557;-73
2021/12/07 05:49:35;;;;;;;10.80;2.87;;;;;;;;;;5029277;28;20100;-73
2021/12/07 05:52:01;;;;;;;14.63;2.40;;;;;;;;;;5026868;28;20116;-73
2021/12/07 05:54:26;;;;;;;13.30;2.40;;;;;;;;;;5028520;28;20409;-73
2021/12/07 05:56:52;;;;;;;10.63;2.73;;;;;;;;;;5027642;28;20041;-73
2021/12/07 05:59:18;;;;;;;12.27;3.33;;;;;;;;;;5033727;28;20044;-73
2021/12/07 06:01:43;;;;;;;6.82;2.67;;;;;;;;;;5032141;28;20033;-73
2021/12/07 06:04:09;;;;;;;13.63;2.43;;;;;;;;;;5034109;28;20384;-73
2021/12/07 06:06:34;;;;;;;14.43;4.57;;;;;;;;;;5025573;28;20117;-73
2021/12/07 06:09:00;;;;;;;16.40;3.10;;;;;;;;;;5028116;28;20022;-74
2021/12/07 06:11:25;;;;;;;11.23;2.80;;;;;;;;;;5029049;28;20114;-73
2021/12/07 06:13:51;;;;;;;21.27;6.63;;;;;;;;;;5030283;28;20069;-73
2021/12/07 06:16:17;;;;;;;32.90;4.18;;;;;;;;;;5022215;28;20033;-73
2021/12/07 06:18:43;;;;;;;13.53;3.00;;;;;;;;;;5021268;28;20038;-73
2021/12/07 06:21:09;;;;;;;11.13;2.88;;;;;;;;;;5017162;28;20121;-73
2021/12/07 06:23:35;;;;;;;12.68;2.40;;;;;;;;;;5023021;28;20095;-73
2021/12/07 06:26:01;;;;;;;10.83;2.17;;;;;;;;;;5020635;28;20038;-73
2021/12/07 06:28:26;;;;;;;15.67;2.67;;;;;;;;;;5027198;28;20467;-73
2021/12/07 06:30:52;;;;;;;16.17;2.40;;;;;;;;;;5043634;28;20053;-73
2021/12/07 06:33:20;;;;;;;17.10;2.83;;;;;;;;;;5034036;28;20018;-73
2021/12/07 06:35:47;;;;;;;15.38;2.53;;;;;;;;;;5031268;28;20037;-74
2021/12/07 06:38:13;;;;;;;;;;;;;;;;;;5018908;28;20113;-73
2021/12/07 06:40:38;;;;;;;8.20;2.25;;;;;;;;;;5023775;28;19963;-73
2021/12/07 06:43:04;;;;;;;12.13;2.23;;;;;;;;;;5023541;28;20515;-73
2021/12/07 06:45:31;;;;;;;12.13;2.37;;;;;;;;;;5023749;28;20500;-73
2021/12/07 06:47:56;;;;;;;;;;;;;;;;;;5015295;28;20040;-73
2021/12/07 06:50:22;;;;;;;12.05;2.40;;;;;;;;;;5017513;28;19917;-74
2021/12/07 06:52:47;;;;;;;11.97;3.27;;;;;;;;;;5014947;28;20405;-73
2021/12/07 06:55:13;;;;;;;12.07;3.40;;;;;;;;;;5017141;28;20032;-73
2021/12/07 06:57:38;;;;;;;16.13;3.20;;;;;;;;;;5016889;28;20390;-73
2021/12/07 07:00:07;;;;;;;22.60;3.53;;;;;;;;;;5024856;28;20487;-73
2021/12/07 07:02:32;;;;;;;13.25;3.03;;;;;;;;;;5024900;28;20381;-74
2021/12/07 07:04:57;;;;;;;22.07;4.87;;;;;;;;;;5026116;28;20042;-74
2021/12/07 07:07:24;;;;;;;11.03;2.30;;;;;;;;;;5020062;28;20030;-75
2021/12/07 07:09:50;;;;;;;12.38;1.95;;;;;;;;;;5025202;28;20025;-75
2021/12/07 07:12:16;;;;;;;14.15;2.13;;;;;;;;;;5020282;28;20045;-75
2021/12/07 07:14:41;;;;;;;10.07;1.33;;;;;;;;;;5024526;28;20033;-73
2021/12/07 07:17:07;;;;;;;7.40;1.60;;;;;;;;;;5018897;28;20030;-73
2021/12/07 07:19:32;;;;;;;11.00;2.67;;;;;;;;;;5026866;28;20136;-72
2021/12/07 07:22:01;;;;;;;8.33;1.83;;;;;;;;;;5028036;28;20105;-73
2021/12/07 07:24:28;;;;;;;17.33;1.98;;;;;;;;;;5029642;28;20034;-73
2021/12/07 07:26:53;;;;;;;11.57;3.33;;;;;;;;;;5021698;28;20501;-73
2021/12/07 07:29:18;;;;;;;16.83;2.27;;;;;;;;;;5029719;28;20034;-73
2021/12/07 07:31:44;;;;;;;15.87;4.00;;;;;;;;;;5031491;28;20045;-73
2021/12/07 07:34:09;;;;;;;17.27;4.00;;;;;;;;;;5031677;28;20041;-73
2021/12/07 07:36:35;;;;;;;9.00;3.43;;;;;;;;;;5031006;28;20040;-73
2021/12/07 07:39:00;;;;;;;6.00;1.53;;;;;;;;;;5031514;28;20037;-73
2021/12/07 07:41:25;;;;;;;13.47;2.17;;;;;;;;;;5029105;28;20099;-73
2021/12/07 07:43:51;;;;;;;11.57;1.77;;;;;;;;;;5030065;28;20026;-73
2021/12/07 07:46:17;;;;;;;5.83;1.40;;;;;;;;;;5029231;28;20029;-73
2021/12/07 07:48:42;;;;;;;14.07;2.00;;;;;;;;;;5030061;28;20072;-72
2021/12/07 07:51:09;;;;;;;6.63;2.40;;;;;;;;;;5029385;28;20041;-73
2021/12/07 07:53:35;;;;;;;7.93;1.63;;;;;;;;;;5029580;28;20025;-73
2021/12/07 07:56:01;;;;;;;13.40;2.07;;;;;;;;;;5027469;28;20110;-73
2021/12/07 07:58:26;;;;;;;11.20;2.30;;;;;;;;;;5028698;28;20270;-72
2021/12/07 08:00:51;;;;;;;8.73;2.50;;;;;;;;;;5029235;28;20528;-74
2021/12/07 08:03:17;;;;;;;13.60;2.60;;;;;;;;;;5029611;28;20114;-74
2021/12/07 08:05:42;;;;;;;4.97;2.40;;;;;;;;;;5026652;28;20030;-75
2021/12/07 08:08:08;;;;;;;9.40;1.90;;;;;;;;;;5029262;28;20457;-75
2021/12/07 08:10:34;;;;;;;10.93;2.30;;;;;;;;;;5022241;28;20056;-74
2021/12/07 08:13:01;;;;;;;9.27;1.70;;;;;;;;;;5017914;28;20068;-72
2021/12/07 08:15:29;;;;;;;8.18;1.60;;;;;;;;;;5032476;28;20099;-72
2021/12/07 08:17:55;;;;;;;7.72;1.38;;;;;;;;;;5033408;28;20087;-72
2021/12/07 08:20:21;;;;;;;9.68;2.53;;;;;;;;;;5032143;28;20120;-72
2021/12/07 08:22:47;;;;;;;10.63;3.40;;;;;;;;;;5033540;28;20148;-72
2021/12/07 08:25:13;;;;;;;12.77;2.93;;;;;;;;;;5028233;28;20038;-74
2021/12/07 08:27:38;;;;;;;7.97;2.60;;;;;;;;;;5031830;28;20060;-74
2021/12/07 08:30:05;;;;;;;7.80;2.43;;;;;;;;;;5030693;28;20464;-74
2021/12/07 08:32:31;;;;;;;15.35;1.83;;;;;;;;;;5028273;28;20065;-73
2021/12/07 08:34:56;;;;;;;6.60;2.87;;;;;;;;;;5032745;28;20119;-74
2021/12/07 08:37:22;;;;;;;11.97;1.17;;;;;;;;;;5028925;28;20037;-74
2021/12/07 08:39:47;;;;;;;14.77;2.27;;;;;;;;;;5042776;28;20433;-74
2021/12/07 08:42:13;;;;;;;6.53;1.60;;;;;;;;;;5022725;28;20484;-74
2021/12/07 08:44:38;;;;;;;7.23;1.77;;;;;;;;;;5024951;28;20033;-74
2021/12/07 08:47:04;;;;;;;9.07;1.33;;;;;;;;;;5020929;28;20358;-74
2021/12/07 08:49:30;;;;;;;9.85;2.13;;;;;;;;;;5034345;28;20461;-75
2021/12/07 08:51:55;;;;;;;4.50;1.00;;;;;;;;;;5024952;28;20041;-74
2021/12/07 08:59:49;;;;;;;11.85;1.60;;;;;;;;;;5033884;28;20057;-75
2021/12/07 09:02:17;;;;;;;8.90;2.13;;;;;;;;;;5013958;28;20445;-74
2021/12/07 09:04:44;;;;;;;10.73;1.23;;;;;;;;;;5025893;28;20041;-74
2021/12/07 09:07:10;;;;;;;16.50;2.20;;;;;;;;;;5022560;28;20029;-74
2021/12/07 09:09:36;;;;;;;4.85;1.70;;;;;;;;;;5016060;28;20046;-74
2021/12/07 09:12:06;;;;;;;13.07;2.65;;;;;;;;;;5016000;28;20485;-74
2021/12/07 09:14:33;;;;;;;9.40;3.22;;;;;;;;;;5024410;28;20049;-74
2021/12/07 09:16:59;;;;;;;9.55;3.75;;;;;;;;;;5028333;28;20033;-74
2021/12/07 09:19:25;;;;;;;11.77;1.77;;;;;;;;;;5029184;28;20042;-74
2021/12/07 09:21:51;;;;;;;6.47;1.50;;;;;;;;;;5030576;28;20044;-74
2021/12/07 09:24:17;;;;;;;11.87;2.17;;;;;;;;;;5030847;28;20080;-74
2021/12/07 09:26:43;;;;;;;8.02;2.10;;;;;;;;;;5029868;28;20394;-74
2021/12/07 09:29:08;;;;;;;11.23;2.27;;;;;;;;;;5025644;28;20039;-74
2021/12/07 09:31:34;;;;;;;7.27;2.10;;;;;;;;;;5023878;28;20397;-74
2021/12/07 09:33:59;;;;;;;4.37;1.23;;;;;;;;;;5023928;28;20860;-73
2021/12/07 09:36:25;;;;;;;12.07;2.17;;;;;;;;;;5026913;28;20037;-74
2021/12/07 09:38:51;;;;;;;5.23;1.80;;;;;;;;;;5023522;28;20026;-74
2021/12/07 09:41:18;;;;;;;8.50;2.42;;;;;;;;;;5022972;28;20044;-74
2021/12/07 09:43:44;;;;;;;;;;;;;;;;;;5032111;28;20048;-74
2021/12/07 09:46:10;;;;;;;4.63;1.40;;;;;;;;;;5022325;28;19909;-74
2021/12/07 09:48:36;;;;;;;12.45;1.95;;;;;;;;;;5029490;28;20080;-73
2021/12/07 09:51:03;;;;;;;12.57;1.57;;;;;;;;;;5023271;28;20483;-74
2021/12/07 09:53:29;;;;;;;;;;;;;;;;;;5028473;28;20033;-74
2021/12/07 09:55:55;;;;;;;8.80;2.15;;;;;;;;;;5018717;28;19913;-74
2021/12/07 09:58:20;;;;;;;6.82;1.35;;;;;;;;;;5027613;28;20033;-74
2021/12/07 10:00:46;;;;;;;13.37;3.53;;;;;;;;;;5024723;28;20116;-74
2021/12/07 10:03:13;;;;;;;13.00;2.43;;;;;;;;;;5027507;28;20045;-74
2021/12/07 10:05:40;;;;;;;11.88;2.17;;;;;;;;;;5041921;28;20269;-74
2021/12/07 10:08:08;;;;;;;13.02;2.67;;;;;;;;;;5025288;28;20060;-74
2021/12/07 10:10:37;;;;;;;13.80;1.40;;;;;;;;;;5023162;28;20048;-74
2021/12/07 10:13:04;;;;;;;14.32;1.73;;;;;;;;;;5022531;28;20037;-74
2021/12/07 10:15:30;;;;;;;12.68;2.22;;;;;;;;;;5025444;28;20079;-75
2021/12/07 10:18:17;;;;;;;14.97;1.83;;;;;;;;;;5025916;28;20057;-74
2021/12/07 10:20:48;;;;;;;17.25;2.65;;;;;;;;;;5022683;28;20127;-73
2021/12/07 10:23:14;;;;;;;9.18;1.92;;;;;;;;;;5025442;28;20073;-74
2021/12/07 10:25:40;;;;;;;9.63;2.50;;;;;;;;;;5012787;28;20096;-74
2021/12/07 10:28:23;;;;;;;;;;;;;;;;;;5025657;28;20087;-74
2021/12/07 10:30:49;;;;;;;11.68;2.05;;;;;;;;;;5029490;28;19924;-74
2021/12/07 10:33:16;;;;;;;13.53;2.10;;;;;;;;;;5024467;28;20042;-74
2021/12/07 10:35:41;;;;;;;8.50;2.47;;;;;;;;;;5012963;28;20076;-74
2021/12/07 10:38:15;;;;;;;13.43;2.77;;;;;;;;;;5028299;28;20037;-74
2021/12/07 10:41:02;;;;;;;8.57;2.63;;;;;;;;;;5026946;28;20030;-75
2021/12/07 10:43:47;;;;;;;14.13;2.00;;;;;;;;;;5038694;28;20486;-74
2021/12/07 10:46:36;;;;;;;9.70;2.08;;;;;;;;;;5028039;28;20021;-74
2021/12/07 10:49:13;;;;;;;13.90;2.85;;;;;;;;;;5021759;28;20793;-74
2021/12/07 10:51:40;;;;;;;11.20;1.80;;;;;;;;;;5023205;28;20681;-74
2021/12/07 10:54:06;;;;;;;15.20;1.92;;;;;;;;;;5027340;28;20045;-74
2021/12/07 10:56:35;;;;;;;13.27;1.97;;;;;;;;;;5023850;28;20103;-74
2021/12/07 10:59:09;;;;;;;14.50;1.73;;;;;;;;;;5025065;28;20025;-74
2021/12/07 11:01:37;;;;;;;6.80;2.03;;;;;;;;;;5014431;28;20046;-74
2021/12/07 11:04:24;;;;;;;13.85;2.50;;;;;;;;;;5013265;28;20474;-74
2021/12/07 11:07:12;;;;;;;11.48;1.80;;;;;;;;;;5008945;28;20037;-74
2021/12/07 11:09:42;;;;;;;12.65;2.55;;;;;;;;;;4999767;28;20034;-74
2021/12/07 11:12:09;;;;;;;10.20;1.75;;;;;;;;;;5009236;28;20045;-74
2021/12/07 11:14:52;;;;;;;10.27;2.67;;;;;;;;;;5011677;28;20069;-74
2021/12/07 11:17:24;;;;;;;17.52;2.45;;;;;;;;;;5003076;28;20700;-74
2021/12/07 11:19:50;;;;;;;9.52;2.55;;;;;;;;;;5005687;28;20046;-74
2021/12/07 11:22:22;;;;;;;10.35;2.38;;;;;;;;;;5009044;28;20092;-74
2021/12/07 11:24:48;;;;;;;14.40;2.17;;;;;;;;;;4999292;28;20040;-74
2021/12/07 11:30:15;;;;;;;11.07;2.05;;;;;;;;;;5014292;28;20137;-74
2021/12/07 11:32:48;;;;;;;10.00;1.67;;;;;;;;;;4998843;28;20030;-74
2021/12/07 11:35:19;;;;;;;14.35;2.55;;;;;;;;;;5008442;28;20030;-74
2021/12/07 11:37:46;;;;;;;8.18;1.92;;;;;;;;;;5008060;28;20034;-74
2021/12/07 11:40:13;;;;;;;8.85;2.42;;;;;;;;;;5009434;28;20141;-74
2021/12/07 11:42:42;;;;;;;8.50;3.63;;;;;;;;;;5019507;28;20041;-74
2021/12/07 11:45:08;;;;;;;8.40;1.55;;;;;;;;;;5005956;28;20033;-74
2021/12/07 11:47:45;;;;;;;7.90;1.20;;;;;;;;;;5010720;28;20045;-74
2021/12/07 11:50:16;;;;;;;;;;;;;;;;;;5023144;28;20037;-74
2021/12/07 11:52:42;;;;;;;10.25;1.75;;;;;;;;;;5004422;28;19987;-74
2021/12/07 11:55:09;;;;;;;10.65;1.92;;;;;;;;;;5011781;28;20095;-74
2021/12/07 11:57:36;;;;;;;8.68;1.75;;;;;;;;;;5018051;28;20096;-74
2021/12/07 12:00:05;;;;;;;7.25;1.85;;;;;;;;;;5000562;28;20092;-75
2021/12/07 12:02:30;;;;;;;8.93;2.00;;;;;;;;;;5009980;28;20040;-74
2021/12/07 12:04:55;;;;;;;7.33;1.23;;;;;;;;;;5012868;28;20125;-74
2021/12/07 12:07:21;;;;;;;6.60;1.70;;;;;;;;;;5012281;28;20105;-74
2021/12/07 12:09:49;;;;;;;8.97;1.20;;;;;;;;;;5019218;28;20385;-74
2021/12/07 12:12:33;;;;;;;3.83;1.00;;;;;;;;;;5010430;28;20038;-74
2021/12/07 12:15:11;;;;;;;3.35;1.10;;;;;;;;;;5002994;28;20050;-74
2021/12/07 12:17:57;;;;;;;4.30;0.95;;;;;;;;;;5003720;28;20045;-73
2021/12/07 12:20:35;;;;;;;4.05;1.05;;;;;;;;;;5004525;28;20034;-74
2021/12/07 12:23:22;;;;;;;3.45;0.90;;;;;;;;;;5012177;28;20053;-74
2021/12/07 12:26:06;;;;;;;8.23;1.10;;;;;;;;;;5007968;28;20042;-74
2021/12/07 12:28:42;;;;;;;3.20;1.55;;;;;;;;;;5013124;28;20042;-74
2021/12/07 12:31:08;;;;;;;4.57;1.10;;;;;;;;;;5012071;28;20501;-74
2021/12/07 12:33:50;;;;;;;5.10;2.00;;;;;;;;;;5019746;28;20050;-74
2021/12/07 12:36:19;;;;;;;4.93;1.13;;;;;;;;;;5007646;28;20072;-74
2021/12/07 12:38:48;;;;;;;5.32;0.80;;;;;;;;;;5012586;28;20041;-74
2021/12/07 12:41:16;;;;;;;6.97;0.85;;;;;;;;;;5010309;28;20436;-74
2021/12/07 12:43:53;;;;;;;4.78;1.30;;;;;;;;;;5011435;28;20032;-74
2021/12/07 12:46:29;;;;;;;4.50;1.53;;;;;;;;;;5007562;28;20096;-74
2021/12/07 12:49:00;;;;;;;12.88;1.52;;;;;;;;;;5008717;28;20084;-74
2021/12/07 12:51:30;;;;;;;16.40;3.72;;;;;;;;;;5010989;28;20092;-74
2021/12/07 12:53:55;;;;;;;19.27;2.80;;;;;;;;;;5010054;28;20030;-74
2021/12/07 12:56:24;;;;;;;24.63;3.27;;;;;;;;;;5012065;28;20493;-74
2021/12/07 12:58:55;;;;;;;20.30;3.00;;;;;;;;;;5011177;28;20037;-74
2021/12/07 13:01:33;;;;;;;14.63;2.97;;;;;;;;;;5011984;28;20037;-73
2021/12/07 13:04:21;;;;;;;16.10;3.50;;;;;;;;;;5001541;28;20504;-74
2021/12/07 13:09:43;;;;;;;21.42;3.50;;;;;;;;;;5000668;28;20054;-74
2021/12/07 13:12:08;;;;;;;16.25;3.00;;;;;;;;;;5007090;28;20478;-74
2021/12/07 13:14:36;;;;;;;15.93;2.60;;;;;;;;;;5006307;28;20140;-74
2021/12/07 13:17:04;;;;;;;25.67;4.35;;;;;;;;;;5011563;28;20025;-74
2021/12/07 13:19:30;;;;;;;26.58;4.40;;;;;;;;;;5011414;28;20109;-74
2021/12/07 13:22:03;;;;;;;31.40;4.68;;;;;;;;;;5011533;28;20052;-74
2021/12/07 13:24:39;;;;;;;20.52;3.95;;;;;;;;;;5009420;28;20500;-74
2021/12/07 13:27:15;;;;;;;36.92;5.93;;;;;;;;;;5006438;28;20529;-74
2021/12/07 13:29:46;;;;;;;17.50;3.83;;;;;;;;;;5008823;28;20041;-74
2021/12/07 13:32:12;;;;;;;25.80;4.43;;;;;;;;;;5010896;28;20973;-74
2021/12/07 13:34:38;;;;;;;18.77;3.47;;;;;;;;;;5009143;28;20064;-74
2021/12/07 13:37:08;;;;;;;23.48;3.60;;;;;;;;;;5010894;28;20038;-75
2021/12/07 13:39:33;;;;;;;16.70;3.55;;;;;;;;;;5000512;28;20038;-74
2021/12/07 13:41:59;;;;;;;25.57;4.43;;;;;;;;;;5011042;28;20400;-74
2021/12/07 13:44:26;;;;;;;19.33;3.03;;;;;;;;;;5008238;28;20030;-74
2021/12/07 13:47:11;;;;;;;15.40;3.90;;;;;;;;;;5011409;28;20465;-74
2021/12/07 13:49:37;;;;;;;25.48;5.38;;;;;;;;;;5011081;28;20048;-74
2021/12/07 13:52:09;;;;;;;18.75;4.40;;;;;;;;;;5006376;28;20046;-75
2021/12/07 13:54:40;;;;;;;26.70;5.97;;;;;;;;;;5005204;28;20034;-74
2021/12/07 13:57:06;;;;;;;31.73;5.13;;;;;;;;;;5006136;28;20038;-74
2021/12/07 13:59:31;;;;;;;28.17;4.30;;;;;;;;;;5005596;28;20049;-75
2021/12/07 14:01:58;;;;;;;18.13;5.47;;;;;;;;;;5005724;28;20470;-74
2021/12/07 14:04:28;;;;;;;23.23;3.97;;;;;;;;;;5005397;28;20030;-74
2021/12/07 14:06:54;;;;;;;17.13;4.68;;;;;;;;;;5006319;28;20260;-74
2021/12/07 14:09:20;;;;;;;24.23;4.80;;;;;;;;;;4992445;28;20038;-74
2021/12/07 14:11:51;;;;;;;23.13;3.95;;;;;;;;;;5010132;28;20069;-74
2021/12/07 14:14:17;;;;;;;19.40;4.10;;;;;;;;;;5025290;28;20030;-74
2021/12/07 14:16:43;;;;;;;18.03;4.23;;;;;;;;;;5009761;28;20497;-74
2021/12/07 14:19:09;;;;;;;21.48;4.43;;;;;;;;;;5010481;28;20057;-74
2021/12/07 14:21:35;;;;;;;13.57;3.43;;;;;;;;;;5010387;28;20461;-74
2021/12/07 14:24:09;;;;;;;20.35;4.13;;;;;;;;;;5005557;28;20374;-74
2021/12/07 14:26:37;;;;;;;25.33;3.30;;;;;;;;;;5000491;28;20053;-74
2021/12/07 14:29:09;;;;;;;20.55;4.25;;;;;;;;;;5005907;28;20470;-74
2021/12/07 14:31:36;;;;;;;28.40;4.75;;;;;;;;;;5009460;28;20045;-74
2021/12/07 14:34:10;;;;;;;29.33;6.28;;;;;;;;;;5009689;28;20073;-74
2021/12/07 14:36:37;;;;;;;33.70;5.82;;;;;;;;;;5009568;28;20042;-74
2021/12/07 14:39:07;;;;;;;;;;;;;;;;;;5010804;28;20084;-74
2021/12/07 14:41:33;;;;;;;29.10;5.03;;;;;;;;;;5010390;28;19917;-74
2021/12/07 14:43:59;;;;;;;33.65;7.15;;;;;;;;;;5010394;28;20034;-74
2021/12/07 14:46:27;;;;;;;46.70;6.80;;;;;;;;;;5009507;28;20037;-74
2021/12/07 14:48:54;;;;;;;30.20;6.35;;;;;;;;;;5016407;28;20053;-74
2021/12/07 14:51:22;;;;;;;27.48;7.32;;;;;;;;;;5005625;28;20039;-74
2021/12/07 14:53:50;;;;;;;21.73;4.78;;;;;;;;;;5008425;28;20038;-74
2021/12/07 14:56:17;;;;;;;46.40;8.00;;;;;;;;;;5011037;28;20042;-74
2021/12/07 14:58:44;;;;;;;37.92;7.13;;;;;;;;;;5009669;28;20474;-74
2021/12/07 15:01:13;;;;;;;34.78;5.32;;;;;;;;;;5005484;28;20038;-74
2021/12/07 15:03:42;;;;;;;35.70;6.32;;;;;;;;;;5003558;28;20042;-74
2021/12/07 15:06:09;;;;;;;37.92;6.63;;;;;;;;;;5010101;28;20092;-74
2021/12/07 15:08:36;;;;;;;32.65;5.30;;;;;;;;;;5006570;28;20124;-74
2021/12/07 15:11:01;;;;;;;;;;;;;;;;;;5005676;28;20030;-74
2021/12/07 15:13:27;;;;;;;33.80;5.70;;;;;;;;;;5007400;28;19917;-74
2021/12/07 15:15:54;;;;;;;33.27;5.00;;;;;;;;;;5004991;28;20034;-74
2021/12/07 15:18:25;;;;;;;49.88;8.15;;;;;;;;;;5005574;28;20065;-74
2021/12/07 15:20:51;;;;;;;43.10;5.20;;;;;;;;;;5004761;28;20033;-74
2021/12/07 15:23:19;;;;;;;38.07;5.93;;;;;;;;;;5006674;28;20026;-74
2021/12/07 15:25:55;;;;;;;36.75;5.05;;;;;;;;;;5007065;28;20390;-74
2021/12/07 15:28:21;;;;;;;29.67;5.47;;;;;;;;;;5010663;28;20041;-74
2021/12/07 15:30:52;;;;;;;35.28;5.35;;;;;;;;;;5008615;28;20049;-74
2021/12/07 15:33:19;;;;;;;27.52;4.00;;;;;;;;;;5009288;28;20053;-74
2021/12/07 15:35:45;;;;;;;35.23;5.73;;;;;;;;;;5009790;28;20041;-74
2021/12/07 15:38:19;;;;;;;19.50;4.72;;;;;;;;;;5002049;28;20387;-74
2021/12/07 15:40:47;;;;;;;30.75;4.85;;;;;;;;;;5001938;28;20049;-74
2021/12/07 15:43:13;;;;;;;27.10;4.90;;;;;;;;;;4998412;28;20045;-74
2021/12/07 15:45:41;;;;;;;26.35;3.90;;;;;;;;;;5004652;28;20521;-74
2021/12/07 15:48:07;;;;;;;29.13;5.20;;;;;;;;;;5006764;28;20117;-74
2021/12/07 15:50:35;;;;;;;21.45;4.07;;;;;;;;;;5006479;28;20496;-74
2021/12/07 15:53:09;;;;;;;29.25;3.97;;;;;;;;;;5007667;28;20034;-74
2021/12/07 15:55:37;;;;;;;24.80;3.45;;;;;;;;;;5008616;28;20053;-74
2021/12/07 15:58:19;;;;;;;24.05;3.65;;;;;;;;;;5008218;28;20072;-74
2021/12/07 16:00:49;;;;;;;20.08;4.07;;;;;;;;;;5007038;28;20050;-73
2021/12/07 16:03:18;;;;;;;22.30;4.95;;;;;;;;;;5006332;28;20048;-74
2021/12/07 16:05:46;;;;;;;21.83;3.15;;;;;;;;;;5008979;28;20029;-74
2021/12/07 16:08:17;;;;;;;21.73;2.95;;;;;;;;;;5006975;28;20042;-74
2021/12/07 16:10:45;;;;;;;14.32;3.20;;;;;;;;;;5003558;28;20579;-74
2021/12/07 16:13:13;;;;;;;15.65;3.28;;;;;;;;;;5019872;28;20069;-74
2021/12/07 16:15:45;;;;;;;12.80;2.58;;;;;;;;;;5007644;28;20084;-74
2021/12/07 16:18:11;;;;;;;11.50;2.60;;;;;;;;;;5007943;28;20497;-74
2021/12/07 16:20:37;;;;;;;17.35;2.75;;;;;;;;;;5005292;28;20072;-74
2021/12/07 16:23:04;;;;;;;26.88;3.88;;;;;;;;;;5000339;28;20025;-74